Time;durP1;ratioP1;P1;durP2;ratioP2;P2;SDS_P1;SDS_P2;PMS_P1;PMS_P2;Temp;Humidity;BMP_temperature;BMP_pressure;BME280_temperature;BME280_humidity;BME280_pressure;Samples;Min_cycle;Max_cycle;Signal;HPM_P1;HPM_P2
2023/03/30 00:00:59;;;;;;;24.23;10.53;;;4.90;99.90;;;;;;4901132;29;20238;-74
2023/03/30 00:03:27;;;;;;;21.33;9.80;;;4.90;99.90;;;;;;4918113;29;20238;-74
2023/03/30 00:05:58;;;;;;;22.27;9.70;;;4.90;99.90;;;;;;4908884;29;20241;-74
2023/03/30 00:08:28;;;;;;;22.97;9.97;;;4.80;99.90;;;;;;4900081;29;20206;-73
2023/03/30 00:11:04;;;;;;;19.73;9.47;;;4.80;99.90;;;;;;4900884;29;20204;-74
2023/03/30 00:13:33;;;;;;;21.10;9.80;;;4.80;99.90;;;;;;4908330;29;20208;-74
2023/03/30 00:16:00;;;;;;;25.33;10.37;;;4.80;99.90;;;;;;4921846;29;20239;-74
2023/03/30 00:18:28;;;;;;;25.27;10.50;;;4.70;99.90;;;;;;4949061;28;20261;-73
2023/03/30 00:20:57;;;;;;;22.30;10.20;;;4.70;99.90;;;;;;4937269;29;20208;-73
2023/03/30 00:23:24;;;;;;;20.93;9.90;;;4.70;99.90;;;;;;4919469;29;20213;-74
2023/03/30 00:25:51;;;;;;;21.77;10.37;;;4.70;99.90;;;;;;4919571;29;20655;-73
2023/03/30 00:28:18;;;;;;;23.40;10.20;;;4.60;99.90;;;;;;4919321;29;20200;-73
2023/03/30 00:30:47;;;;;;;23.33;9.90;;;4.60;99.90;;;;;;4919538;29;20201;-74
2023/03/30 00:33:14;;;;;;;22.50;9.77;;;4.60;99.90;;;;;;4919490;29;20226;-74
2023/03/30 00:35:41;;;;;;;19.67;9.23;;;4.50;99.90;;;;;;4919454;29;20560;-74
2023/03/30 00:38:08;;;;;;;22.23;9.37;;;4.50;99.90;;;;;;4919352;29;20204;-73
2023/03/30 00:40:35;;;;;;;19.83;9.83;;;4.50;99.90;;;;;;4919138;29;20211;-73
2023/03/30 00:43:05;;;;;;;23.83;9.13;;;4.50;99.90;;;;;;4919508;29;20205;-73
2023/03/30 00:45:33;;;;;;;20.60;9.37;;;4.50;99.90;;;;;;4918947;29;20242;-73
2023/03/30 00:48:02;;;;;;;21.93;9.30;;;4.50;99.90;;;;;;4918980;29;20216;-73
2023/03/30 00:51:01;;;;;;;23.63;9.63;;;4.50;99.90;;;;;;4918937;29;20204;-73
2023/03/30 00:53:33;;;;;;;21.50;9.63;;;4.50;99.90;;;;;;4825181;29;20211;-72
2023/03/30 00:56:03;;;;;;;18.77;8.80;;;4.50;99.90;;;;;;4840020;29;20257;-73
2023/03/30 00:58:30;;;;;;;18.93;8.80;;;4.50;99.90;;;;;;4840157;29;20234;-73
2023/03/30 01:01:00;;;;;;;20.83;8.53;;;4.60;99.90;;;;;;4840328;29;20212;-73
2023/03/30 01:03:46;;;;;;;19.00;9.37;;;4.60;99.90;;;;;;4824947;29;20657;-73
2023/03/30 01:06:16;;;;;;;17.73;8.63;;;4.50;99.90;;;;;;4824888;29;20247;-73
2023/03/30 01:08:44;;;;;;;19.67;8.87;;;4.60;99.90;;;;;;4824497;29;20224;-73
2023/03/30 01:11:11;;;;;;;18.73;8.47;;;4.70;99.90;;;;;;4825005;29;20215;-74
2023/03/30 01:13:43;;;;;;;21.53;8.53;;;4.60;99.90;;;;;;4840093;29;20298;-73
2023/03/30 01:16:27;;;;;;;19.27;9.00;;;4.60;99.90;;;;;;4836959;29;20243;-73
2023/03/30 01:19:09;;;;;;;21.60;9.37;;;4.60;99.90;;;;;;4858337;29;20202;-72
2023/03/30 01:22:04;;;;;;;23.00;9.43;;;4.60;99.90;;;;;;4857502;29;20658;-73
2023/03/30 01:24:52;;;;;;;21.90;8.60;;;4.60;99.90;;;;;;4858227;29;20230;-74
2023/03/30 01:27:38;;;;;;;18.70;8.27;;;4.60;99.90;;;;;;4842590;29;20230;-73
2023/03/30 01:30:43;;;;;;;19.83;9.30;;;4.60;99.90;;;;;;4901581;29;20209;-73
2023/03/30 01:33:32;;;;;;;17.83;8.37;;;4.60;99.90;;;;;;4918432;29;20198;-73
2023/03/30 01:36:34;;;;;;;16.90;8.40;;;4.50;99.90;;;;;;4918243;29;20202;-72
2023/03/30 01:39:21;;;;;;;20.30;8.10;;;4.50;99.90;;;;;;4918292;29;20275;-72
2023/03/30 01:42:31;;;;;;;18.47;8.50;;;4.50;99.90;;;;;;4918258;29;20211;-76
2023/03/30 01:45:28;;;;;;;19.23;9.00;;;4.50;99.90;;;;;;4934964;29;20266;-74
2023/03/30 01:48:06;;;;;;;16.20;8.67;;;4.50;99.90;;;;;;4918205;29;20561;-75
2023/03/30 01:50:39;;;;;;;20.43;8.53;;;4.50;99.90;;;;;;4917949;29;20248;-75
2023/03/30 01:53:09;;;;;;;18.47;8.47;;;4.50;99.90;;;;;;4935059;29;20202;-72
2023/03/30 01:55:44;;;;;;;19.37;8.53;;;4.60;99.90;;;;;;4935098;29;20224;-72
2023/03/30 01:58:40;;;;;;;18.80;9.00;;;4.50;99.90;;;;;;4918009;29;20201;-72
2023/03/30 02:01:09;;;;;;;18.30;8.47;;;4.50;99.90;;;;;;4917991;29;20201;-73
2023/03/30 02:03:39;;;;;;;17.87;8.37;;;4.50;99.90;;;;;;4935191;29;20552;-74
2023/03/30 02:06:15;;;;;;;16.63;7.97;;;4.60;99.90;;;;;;4934860;29;20229;-72
2023/03/30 02:08:45;;;;;;;19.93;8.73;;;4.50;99.90;;;;;;4917679;29;20231;-73
2023/03/30 02:11:12;;;;;;;18.57;7.93;;;4.60;99.90;;;;;;4918063;29;20208;-72
2023/03/30 02:13:41;;;;;;;18.80;8.33;;;4.70;99.90;;;;;;4917771;29;20212;-73
2023/03/30 02:16:21;;;;;;;17.83;8.33;;;4.60;99.90;;;;;;4917394;29;20218;-75
2023/03/30 02:18:48;;;;;;;17.97;7.77;;;4.60;99.90;;;;;;4917917;29;20297;-75
2023/03/30 02:21:15;;;;;;;17.87;8.80;;;4.60;99.90;;;;;;4917960;29;20661;-74
2023/03/30 02:23:45;;;;;;;19.47;8.63;;;4.50;99.90;;;;;;4917829;29;20303;-76
2023/03/30 02:26:12;;;;;;;18.40;8.27;;;4.40;99.90;;;;;;4917497;29;20406;-73
2023/03/30 02:28:39;;;;;;;19.30;8.40;;;4.40;99.90;;;;;;4918037;29;20205;-72
2023/03/30 02:31:16;;;;;;;15.97;8.00;;;4.40;99.90;;;;;;4934970;29;20207;-76
2023/03/30 02:34:01;;;;;;;17.83;8.03;;;4.50;99.90;;;;;;4921658;29;20242;-73
2023/03/30 02:36:53;;;;;;;16.37;8.57;;;4.50;99.90;;;;;;4921717;29;20691;-77
2023/03/30 02:39:34;;;;;;;16.27;8.00;;;4.60;99.90;;;;;;4921378;29;20201;-76
2023/03/30 02:42:57;;;;;;;19.10;8.07;;;4.60;99.90;;;;;;4921477;29;20205;-77
2023/03/30 02:45:32;;;;;;;17.60;8.03;;;4.50;99.90;;;;;;4827108;29;20230;-78
2023/03/30 02:48:11;;;;;;;19.03;8.77;;;4.50;99.90;;;;;;4827115;29;20209;-74
2023/03/30 02:50:53;;;;;;;17.93;8.47;;;4.60;99.90;;;;;;4827207;29;21020;-74
2023/03/30 02:53:31;;;;;;;18.47;8.50;;;4.60;99.90;;;;;;4826785;29;20225;-74
2023/03/30 02:56:24;;;;;;;21.03;8.83;;;4.60;99.90;;;;;;4820329;29;20248;-73
2023/03/30 02:58:52;;;;;;;16.67;8.07;;;4.60;99.90;;;;;;4842362;29;20210;-75
2023/03/30 03:01:37;;;;;;;19.57;8.20;;;4.60;99.90;;;;;;4842270;29;20663;-75
2023/03/30 03:04:06;;;;;;;17.83;8.57;;;4.70;99.90;;;;;;4821069;29;20736;-73
2023/03/30 03:06:33;;;;;;;18.57;8.73;;;4.70;99.90;;;;;;4826655;29;20776;-73
2023/03/30 03:09:00;;;;;;;18.90;8.10;;;4.70;99.90;;;;;;4842093;29;20584;-73
2023/03/30 03:11:27;;;;;;;18.20;8.60;;;4.70;99.90;;;;;;4827187;29;20200;-73
2023/03/30 03:13:54;;;;;;;20.97;8.53;;;4.70;99.90;;;;;;4826561;29;20223;-71
2023/03/30 03:16:21;;;;;;;18.20;8.47;;;4.60;99.90;;;;;;4826223;29;20244;-71
2023/03/30 03:18:48;;;;;;;16.57;8.10;;;4.60;99.90;;;;;;4864282;29;20676;-71
2023/03/30 03:21:15;;;;;;;18.43;8.07;;;4.60;99.90;;;;;;4937961;29;20205;-73
2023/03/30 03:23:42;;;;;;;16.70;7.87;;;4.60;99.90;;;;;;4920538;29;20200;-74
2023/03/30 03:26:10;;;;;;;18.43;8.57;;;4.70;99.90;;;;;;5171287;23;20610;-72
2023/03/30 03:28:37;;;;;;;18.07;8.20;;;4.70;99.90;;;;;;4958723;28;20200;-72
2023/03/30 03:31:04;;;;;;;18.50;8.57;;;4.70;99.90;;;;;;4958577;28;20190;-72
2023/03/30 03:33:32;;;;;;;20.10;8.47;;;4.70;99.90;;;;;;4958479;28;20223;-73
2023/03/30 03:35:59;;;;;;;17.10;9.00;;;4.80;99.90;;;;;;4958550;28;20658;-72
2023/03/30 03:38:27;;;;;;;18.30;8.60;;;4.90;99.90;;;;;;4958459;28;20211;-74
2023/03/30 03:40:57;;;;;;;19.37;8.83;;;4.90;99.90;;;;;;4975841;28;20194;-72
2023/03/30 03:43:24;;;;;;;19.60;8.80;;;4.80;99.90;;;;;;4942093;28;20653;-72
2023/03/30 03:45:51;;;;;;;18.50;8.60;;;4.90;99.90;;;;;;4975642;28;20302;-72
2023/03/30 03:48:21;;;;;;;18.80;9.20;;;5.00;99.90;;;;;;4958280;28;20567;-72
2023/03/30 03:50:56;;;;;;;19.53;8.87;;;5.00;99.90;;;;;;4958215;28;20209;-72
2023/03/30 03:53:26;;;;;;;16.67;8.43;;;4.90;99.90;;;;;;4958470;28;20204;-73
2023/03/30 03:55:53;;;;;;;20.27;8.53;;;4.90;99.90;;;;;;4957850;28;20208;-72
2023/03/30 03:58:21;;;;;;;19.17;8.70;;;4.80;99.90;;;;;;4957989;28;20196;-72
2023/03/30 04:00:48;;;;;;;21.97;9.33;;;4.80;99.90;;;;;;4975294;28;20197;-72
2023/03/30 04:03:16;;;;;;;18.97;8.97;;;4.80;99.90;;;;;;4975639;28;20214;-72
2023/03/30 04:05:42;;;;;;;17.60;8.20;;;4.80;99.90;;;;;;4958063;28;20217;-73
2023/03/30 04:08:10;;;;;;;19.97;8.67;;;4.90;99.90;;;;;;4958056;28;20200;-72
2023/03/30 04:10:38;;;;;;;18.33;9.20;;;4.90;99.90;;;;;;4958160;28;20211;-72
2023/03/30 04:13:06;;;;;;;21.53;9.37;;;4.90;99.90;;;;;;4975469;28;20778;-72
2023/03/30 04:15:34;;;;;;;20.13;9.10;;;4.80;99.90;;;;;;4974895;28;20229;-72
2023/03/30 04:18:04;;;;;;;19.07;9.00;;;4.80;99.90;;;;;;4975027;28;20192;-72
2023/03/30 04:20:32;;;;;;;18.37;9.23;;;4.80;99.90;;;;;;4974817;28;20209;-72
2023/03/30 04:23:00;;;;;;;20.00;9.67;;;4.80;99.90;;;;;;4957633;28;20295;-71
2023/03/30 04:25:27;;;;;;;22.60;9.77;;;4.90;99.90;;;;;;4957098;28;20236;-74
2023/03/30 04:27:55;;;;;;;22.83;9.33;;;5.00;99.90;;;;;;4957596;28;20192;-75
2023/03/30 04:30:23;;;;;;;21.03;9.30;;;5.00;99.90;;;;;;4975097;28;20463;-72
2023/03/30 04:33:01;;;;;;;18.40;8.97;;;5.10;99.90;;;;;;4958042;28;20211;-72
2023/03/30 04:35:30;;;;;;;19.53;9.40;;;5.10;99.90;;;;;;4957388;28;20197;-72
2023/03/30 04:37:59;;;;;;;22.03;9.80;;;5.20;99.90;;;;;;4957404;28;20295;-77
2023/03/30 04:40:26;;;;;;;17.97;8.70;;;5.10;99.90;;;;;;4957291;28;20266;-77
2023/03/30 04:42:54;;;;;;;23.93;9.53;;;5.20;99.90;;;;;;4957086;28;20655;-72
2023/03/30 04:45:21;;;;;;;19.53;9.07;;;5.20;99.90;;;;;;4957158;28;20221;-74
2023/03/30 04:47:48;;;;;;;18.73;9.37;;;5.20;99.90;;;;;;4957105;28;20640;-77
2023/03/30 04:50:15;;;;;;;22.00;9.30;;;5.20;99.90;;;;;;4974620;28;20207;-75
2023/03/30 04:52:42;;;;;;;19.77;9.77;;;5.30;99.90;;;;;;4957449;28;20556;-75
2023/03/30 04:55:08;;;;;;;20.47;9.60;;;5.30;99.90;;;;;;4956480;28;20224;-75
2023/03/30 04:57:36;;;;;;;22.30;9.90;;;5.30;99.90;;;;;;4974292;28;20218;-74
2023/03/30 05:00:08;;;;;;;20.43;9.83;;;5.40;99.90;;;;;;4956873;28;20632;-76
2023/03/30 05:02:35;;;;;;;18.80;9.30;;;5.40;99.90;;;;;;4956597;28;20242;-75
2023/03/30 05:05:02;;;;;;;23.67;9.47;;;5.50;99.90;;;;;;4974284;28;20188;-78
2023/03/30 05:07:29;;;;;;;21.43;9.83;;;5.50;99.90;;;;;;4956864;28;20677;-73
2023/03/30 05:09:56;;;;;;;23.97;10.50;;;5.60;99.90;;;;;;4974456;28;20288;-72
2023/03/30 05:12:23;;;;;;;21.03;9.80;;;5.60;99.90;;;;;;4956976;28;20663;-74
2023/03/30 05:14:50;;;;;;;19.87;9.93;;;5.60;99.90;;;;;;4956738;28;20204;-75
2023/03/30 05:17:16;;;;;;;18.43;9.00;;;5.70;99.90;;;;;;4956547;28;20208;-74
2023/03/30 05:19:43;;;;;;;24.10;9.53;;;5.80;99.90;;;;;;4956891;28;20629;-74
2023/03/30 05:22:10;;;;;;;20.97;10.23;;;5.80;99.90;;;;;;4957070;28;20194;-74
2023/03/30 05:24:37;;;;;;;21.47;9.67;;;5.90;99.90;;;;;;4974227;28;20214;-77
2023/03/30 05:27:05;;;;;;;21.00;9.70;;;5.70;99.90;;;;;;4956339;28;20229;-75
2023/03/30 05:29:32;;;;;;;22.60;10.57;;;5.60;99.90;;;;;;4940724;28;20670;-79
2023/03/30 05:31:59;;;;;;;20.90;10.67;;;5.70;99.90;;;;;;4957753;28;20208;-77
2023/03/30 05:34:26;;;;;;;20.63;9.60;;;5.80;99.90;;;;;;4974470;28;20284;-77
2023/03/30 05:36:53;;;;;;;23.43;10.50;;;5.80;99.90;;;;;;4956860;28;20247;-77
2023/03/30 05:39:22;;;;;;;23.70;9.70;;;5.90;99.90;;;;;;4956258;28;20643;-74
2023/03/30 05:41:49;;;;;;;24.20;10.73;;;5.90;99.90;;;;;;4956683;28;20204;-74
2023/03/30 05:44:17;;;;;;;23.27;10.70;;;5.90;99.90;;;;;;4973760;28;20201;-74
2023/03/30 05:46:46;;;;;;;20.20;10.10;;;6.00;99.90;;;;;;4956446;28;20753;-75
2023/03/30 05:49:13;;;;;;;21.20;10.23;;;6.00;99.90;;;;;;4956374;28;20233;-75
2023/03/30 05:51:40;;;;;;;24.13;11.07;;;6.00;99.90;;;;;;4956342;28;20205;-75
2023/03/30 05:54:10;;;;;;;22.70;10.23;;;6.00;99.90;;;;;;4973563;28;20194;-72
2023/03/30 05:56:37;;;;;;;22.37;10.17;;;6.10;99.90;;;;;;4973299;28;20215;-74
2023/03/30 05:59:04;;;;;;;23.57;10.27;;;6.10;99.90;;;;;;4973826;28;20203;-72
2023/03/30 06:01:32;;;;;;;21.70;10.37;;;6.10;99.90;;;;;;4956462;28;20584;-73
2023/03/30 06:03:59;;;;;;;21.50;10.43;;;6.20;99.90;;;;;;4973333;28;20611;-74
2023/03/30 06:06:27;;;;;;;23.93;10.60;;;6.20;99.90;;;;;;4973314;28;20221;-79
2023/03/30 06:08:53;;;;;;;24.33;10.40;;;6.20;99.90;;;;;;4959871;28;20217;-78
2023/03/30 06:11:20;;;;;;;23.20;10.27;;;6.20;99.90;;;;;;4960373;28;20200;-76
2023/03/30 06:13:48;;;;;;;23.90;11.00;;;6.00;99.90;;;;;;4960103;28;20296;-72
2023/03/30 06:16:15;;;;;;;20.33;9.93;;;6.10;99.90;;;;;;4976959;28;20216;-76
2023/03/30 06:18:42;;;;;;;21.73;10.97;;;6.20;99.90;;;;;;4960071;28;20264;-74
2023/03/30 06:21:08;;;;;;;19.97;10.20;;;6.20;99.90;;;;;;4977383;28;20655;-71
2023/03/30 06:23:36;;;;;;;21.97;10.87;;;6.20;99.90;;;;;;4977368;28;20200;-76
2023/03/30 06:26:03;;;;;;;23.73;10.60;;;6.20;99.90;;;;;;4959452;28;20232;-75
2023/03/30 06:28:30;;;;;;;22.40;10.50;;;6.30;99.90;;;;;;4959897;28;20232;-75
2023/03/30 06:31:00;;;;;;;21.03;10.30;;;6.40;99.90;;;;;;4959679;28;20199;-74
2023/03/30 06:33:27;;;;;;;20.63;10.10;;;6.40;99.90;;;;;;4959887;28;20197;-72
2023/03/30 06:35:54;;;;;;;24.63;10.80;;;6.50;99.90;;;;;;4959910;28;20201;-73
2023/03/30 06:38:22;;;;;;;23.03;10.90;;;6.60;99.90;;;;;;4959295;28;20620;-76
2023/03/30 06:40:49;;;;;;;24.33;10.33;;;6.70;99.90;;;;;;4959441;28;20201;-73
2023/03/30 06:43:25;;;;;;;22.67;10.87;;;6.70;99.90;;;;;;4959606;28;20201;-75
2023/03/30 06:45:53;;;;;;;23.73;10.33;;;6.90;99.90;;;;;;4959524;28;20212;-73
2023/03/30 06:48:25;;;;;;;21.53;10.90;;;7.00;99.90;;;;;;4959527;28;20239;-77
2023/03/30 06:50:53;;;;;;;23.70;10.80;;;7.10;99.90;;;;;;4959050;28;20261;-74
2023/03/30 06:53:21;;;;;;;22.37;9.63;;;7.10;99.90;;;;;;4959719;28;20722;-74
2023/03/30 06:55:53;;;;;;;20.57;10.67;;;7.10;99.90;;;;;;4959390;28;20205;-75
2023/03/30 06:58:25;;;;;;;26.50;11.07;;;7.00;99.90;;;;;;4960183;28;20197;-77
2023/03/30 07:00:53;;;;;;;24.33;10.70;;;7.00;99.90;;;;;;4959564;28;20698;-80
2023/03/30 07:03:20;;;;;;;24.97;11.00;;;7.10;99.90;;;;;;4960132;28;20256;-75
2023/03/30 07:05:51;;;;;;;19.73;10.87;;;7.30;99.90;;;;;;4976773;28;20326;-73
2023/03/30 07:08:19;;;;;;;20.10;10.37;;;7.30;99.90;;;;;;4959398;28;20218;-72
2023/03/30 07:10:47;;;;;;;21.23;9.97;;;7.30;99.90;;;;;;4976215;28;20200;-77
2023/03/30 07:13:15;;;;;;;20.87;10.23;;;7.20;99.90;;;;;;4958814;28;20205;-74
2023/03/30 07:15:44;;;;;;;19.10;10.33;;;7.20;99.90;;;;;;4942939;28;20247;-76
2023/03/30 07:18:11;;;;;;;22.40;10.53;;;7.20;99.90;;;;;;4959386;28;20216;-74
2023/03/30 07:20:38;;;;;;;19.07;10.17;;;7.30;99.90;;;;;;4977128;28;20199;-76
2023/03/30 07:23:06;;;;;;;19.97;10.10;;;7.20;99.90;;;;;;4959153;28;20678;-75
2023/03/30 07:25:32;;;;;;;18.80;9.37;;;7.20;99.90;;;;;;4976702;28;20197;-74
2023/03/30 07:28:01;;;;;;;21.90;10.33;;;7.30;99.90;;;;;;4959672;28;20621;-82
2023/03/30 07:30:28;;;;;;;21.57;10.50;;;7.40;99.90;;;;;;4959923;28;20551;-74
2023/03/30 07:32:55;;;;;;;22.67;10.47;;;7.40;99.90;;;;;;4959089;28;20232;-77
2023/03/30 07:35:25;;;;;;;18.70;10.17;;;7.50;99.90;;;;;;4943348;28;20205;-77
2023/03/30 07:37:52;;;;;;;22.17;10.27;;;7.70;99.90;;;;;;4958968;28;20197;-72
2023/03/30 07:40:29;;;;;;;23.53;11.53;;;7.90;99.90;;;;;;4958519;28;20303;-75
2023/03/30 07:42:56;;;;;;;22.93;10.33;;;8.00;99.90;;;;;;4976215;28;20195;-74
2023/03/30 07:45:23;;;;;;;21.40;10.07;;;7.90;99.90;;;;;;4958564;28;20204;-73
2023/03/30 07:47:50;;;;;;;24.00;10.57;;;8.00;99.90;;;;;;4958347;28;20623;-73
2023/03/30 07:50:17;;;;;;;22.37;10.17;;;8.10;99.90;;;;;;4976039;28;20194;-72
2023/03/30 07:52:44;;;;;;;21.27;10.50;;;8.10;99.90;;;;;;4957870;28;20194;-73
2023/03/30 07:55:11;;;;;;;24.13;11.03;;;8.20;99.90;;;;;;4958063;28;20208;-74
2023/03/30 07:57:38;;;;;;;21.23;10.13;;;8.30;99.90;;;;;;4958094;28;20216;-72
2023/03/30 08:00:08;;;;;;;21.63;10.33;;;8.20;99.90;;;;;;4975412;28;20269;-73
2023/03/30 08:02:36;;;;;;;20.00;10.23;;;8.10;99.90;;;;;;4975913;28;20280;-72
2023/03/30 08:05:04;;;;;;;23.10;10.57;;;8.10;99.90;;;;;;4974424;28;20211;-73
2023/03/30 08:07:33;;;;;;;20.50;10.53;;;8.30;99.90;;;;;;4975477;28;20217;-74
2023/03/30 08:10:00;;;;;;;21.13;10.00;;;8.60;99.90;;;;;;4958077;28;20292;-77
2023/03/30 08:12:27;;;;;;;18.53;10.27;;;8.70;99.90;;;;;;4958638;28;20252;-78
2023/03/30 08:14:54;;;;;;;21.60;10.47;;;8.70;99.90;;;;;;4958711;28;20206;-76
2023/03/30 08:17:21;;;;;;;22.53;10.53;;;8.40;99.90;;;;;;4958114;28;20190;-79
2023/03/30 08:19:50;;;;;;;20.10;10.03;;;8.60;99.90;;;;;;4958640;28;20292;-79
2023/03/30 08:22:19;;;;;;;24.30;10.50;;;8.70;99.90;;;;;;4960007;28;20212;-74
2023/03/30 08:24:46;;;;;;;23.03;10.23;;;8.70;99.90;;;;;;4960980;28;20213;-76
2023/03/30 08:27:13;;;;;;;21.90;10.83;;;8.80;99.90;;;;;;4961187;28;20703;-76
2023/03/30 08:29:40;;;;;;;17.07;9.73;;;8.80;99.90;;;;;;4975661;28;20272;-86
2023/03/30 08:32:07;;;;;;;20.57;10.30;;;8.90;99.90;;;;;;4959233;28;20197;-74
2023/03/30 08:34:38;;;;;;;18.63;9.63;;;8.90;99.90;;;;;;4957590;28;20193;-75
2023/03/30 08:37:06;;;;;;;19.50;9.53;;;8.90;99.90;;;;;;4972032;28;20185;-75
2023/03/30 08:39:33;;;;;;;22.80;10.60;;;8.90;99.90;;;;;;4957225;28;20567;-74
2023/03/30 08:42:28;;;;;;;22.23;10.50;;;9.00;99.90;;;;;;4957699;28;20201;-77
2023/03/30 08:45:02;;;;;;;17.57;10.07;;;8.90;99.90;;;;;;4945089;29;20190;-77
2023/03/30 08:47:36;;;;;;;19.47;9.97;;;9.00;99.90;;;;;;4938034;29;20711;-78
2023/03/30 08:50:16;;;;;;;15.60;9.27;;;9.00;99.90;;;;;;4954412;29;20190;-74
2023/03/30 08:52:42;;;;;;;18.30;9.17;;;9.00;99.90;;;;;;4944274;28;20288;-79
2023/03/30 08:55:35;;;;;;;16.43;9.10;;;8.90;99.90;;;;;;4974619;28;20671;-76
2023/03/30 08:58:25;;;;;;;18.73;9.40;;;8.60;99.90;;;;;;4957356;28;20194;-77
2023/03/30 09:01:15;;;;;;;19.00;9.70;;;8.70;99.90;;;;;;4867905;29;20238;-75
2023/03/30 09:04:01;;;;;;;17.80;9.70;;;8.80;99.90;;;;;;4877477;29;20257;-79
2023/03/30 09:07:02;;;;;;;19.37;9.60;;;8.70;99.90;;;;;;4896314;29;20224;-75
2023/03/30 09:09:33;;;;;;;18.70;9.93;;;8.80;99.90;;;;;;4895987;29;20200;-75
2023/03/30 09:12:32;;;;;;;21.00;10.03;;;8.90;99.90;;;;;;4880406;29;20215;-75
2023/03/30 09:15:15;;;;;;;21.90;10.20;;;8.80;99.90;;;;;;4895785;29;20690;-76
2023/03/30 09:17:50;;;;;;;22.10;11.00;;;8.70;99.90;;;;;;4880081;29;20204;-77
2023/03/30 09:20:28;;;;;;;21.17;10.60;;;8.80;99.90;;;;;;4895640;29;20290;-76
2023/03/30 09:22:58;;;;;;;21.27;10.23;;;8.70;99.90;;;;;;4895792;29;20537;-76
2023/03/30 09:25:37;;;;;;;21.07;10.40;;;8.80;99.90;;;;;;4879112;29;20217;-78
2023/03/30 09:28:21;;;;;;;18.63;10.30;;;9.00;99.90;;;;;;4879878;29;20235;-76
2023/03/30 09:30:54;;;;;;;19.13;10.13;;;9.20;99.90;;;;;;4895261;29;20716;-75
2023/03/30 09:33:51;;;;;;;16.93;9.93;;;9.40;99.90;;;;;;4895704;29;20211;-76
2023/03/30 09:36:40;;;;;;;18.27;10.03;;;9.50;99.90;;;;;;4891833;29;20213;-77
2023/03/30 09:39:19;;;;;;;22.17;10.60;;;9.80;99.90;;;;;;4941934;28;20296;-73
2023/03/30 09:42:34;;;;;;;18.53;10.13;;;9.80;99.90;;;;;;4973074;28;20231;-80
2023/03/30 09:45:26;;;;;;;20.93;9.83;;;9.70;99.90;;;;;;4842745;29;20204;-76
2023/03/30 09:47:53;;;;;;;19.10;9.60;;;9.70;99.90;;;;;;4842967;29;20241;-79
2023/03/30 09:50:23;;;;;;;17.10;9.63;;;9.80;99.90;;;;;;4858207;29;20274;-73
2023/03/30 09:52:55;;;;;;;20.13;10.10;;;10.00;99.90;;;;;;4842758;29;20205;-74
2023/03/30 09:55:31;;;;;;;20.20;10.20;;;10.10;99.90;;;;;;4842528;29;20233;-76
2023/03/30 09:58:22;;;;;;;16.87;9.43;;;10.40;99.90;;;;;;4843294;29;20217;-79
2023/03/30 10:01:07;;;;;;;19.83;9.60;;;10.80;99.90;;;;;;4843011;29;20208;-75
2023/03/30 10:03:34;;;;;;;16.53;9.10;;;11.20;99.90;;;;;;4859287;29;20656;-77
2023/03/30 10:06:03;;;;;;;17.43;9.30;;;11.40;99.90;;;;;;4842990;29;20247;-78
2023/03/30 10:08:32;;;;;;;15.33;8.73;;;11.40;99.90;;;;;;4859151;29;20236;-77
2023/03/30 10:11:01;;;;;;;16.17;9.20;;;11.70;99.90;;;;;;4858700;29;20219;-75
2023/03/30 10:13:32;;;;;;;16.53;9.13;;;11.90;99.90;;;;;;4843491;29;20220;-77
2023/03/30 10:16:04;;;;;;;18.40;9.80;;;11.80;99.90;;;;;;4858871;29;20229;-76
2023/03/30 10:18:43;;;;;;;23.30;9.37;;;11.90;99.90;;;;;;4843993;29;20237;-75
2023/03/30 10:21:14;;;;;;;15.70;8.50;;;12.30;99.90;;;;;;4887889;29;20229;-75
2023/03/30 10:23:43;;;;;;;18.80;9.73;;;12.70;99.90;;;;;;4957284;28;20219;-76
2023/03/30 10:26:17;;;;;;;14.53;9.10;;;12.40;99.90;;;;;;4955138;28;20217;-82
2023/03/30 10:28:56;;;;;;;17.50;9.07;;;12.80;99.90;;;;;;4957409;28;20590;-78
2023/03/30 10:31:36;;;;;;;15.87;8.47;;;13.10;99.90;;;;;;4964023;28;20193;-80
2023/03/30 10:34:13;;;;;;;18.10;9.13;;;13.20;99.90;;;;;;4958488;28;20631;-82
2023/03/30 10:36:40;;;;;;;16.60;8.23;;;13.40;99.90;;;;;;4956310;28;20190;-74
2023/03/30 10:39:18;;;;;;;14.03;8.50;;;13.80;99.90;;;;;;4956658;28;20550;-72
2023/03/30 10:41:47;;;;;;;14.50;7.90;;;13.60;99.90;;;;;;4973834;28;20211;-79
2023/03/30 10:44:33;;;;;;;15.43;8.30;;;13.50;99.90;;;;;;4956671;28;20220;-82
2023/03/30 10:47:09;;;;;;;14.00;8.23;;;13.70;99.90;;;;;;4973647;28;20209;-77
2023/03/30 10:49:43;;;;;;;15.57;8.57;;;13.90;99.90;;;;;;4973925;28;20210;-76
2023/03/30 10:52:44;;;;;;;14.97;7.70;;;13.60;99.90;;;;;;4973676;28;20191;-77
2023/03/30 10:55:37;;;;;;;13.87;7.77;;;13.90;99.90;;;;;;4898575;29;20219;-76
2023/03/30 10:58:32;;;;;;;15.77;8.73;;;14.30;99.90;;;;;;4898531;29;20573;-71
2023/03/30 11:01:09;;;;;;;15.47;7.90;;;14.60;99.90;;;;;;4898249;29;20304;-73
2023/03/30 11:03:40;;;;;;;15.83;8.00;;;15.00;99.90;;;;;;4898726;29;20243;-74
2023/03/30 11:06:23;;;;;;;13.57;7.73;;;15.40;99.90;;;;;;4882753;29;20216;-72
2023/03/30 11:08:54;;;;;;;14.40;7.80;;;15.30;99.90;;;;;;4899466;29;20657;-71
2023/03/30 11:11:27;;;;;;;13.10;7.93;;;15.50;99.90;;;;;;4898081;29;20200;-75
2023/03/30 11:14:03;;;;;;;13.97;7.70;;;15.60;99.90;;;;;;4898423;29;20206;-73
2023/03/30 11:16:54;;;;;;;15.10;8.20;;;16.00;99.90;;;;;;4882981;29;20592;-75
2023/03/30 11:19:29;;;;;;;17.60;8.13;;;15.90;99.90;;;;;;4900557;29;20662;-68
2023/03/30 11:22:21;;;;;;;13.80;8.20;;;15.80;99.90;;;;;;4877050;29;20208;-79
2023/03/30 11:24:51;;;;;;;13.70;7.90;;;15.60;99.90;;;;;;4895520;29;20208;-79
2023/03/30 11:27:28;;;;;;;16.57;8.43;;;15.40;99.90;;;;;;4902731;29;20239;-79
2023/03/30 11:30:18;;;;;;;13.00;7.53;;;15.00;99.90;;;;;;4887136;29;20200;-81
2023/03/30 11:32:54;;;;;;;13.07;7.47;;;14.90;99.90;;;;;;4928467;29;20801;-77
2023/03/30 11:35:35;;;;;;;14.00;7.67;;;14.40;99.90;;;;;;4952956;29;20202;-74
2023/03/30 11:38:28;;;;;;;14.07;7.87;;;14.20;99.90;;;;;;4962730;28;20221;-74
2023/03/30 11:41:13;;;;;;;15.50;7.63;;;14.20;99.90;;;;;;4981591;28;20197;-75
2023/03/30 11:43:40;;;;;;;14.57;7.97;;;14.10;99.90;;;;;;5000366;28;20193;-84
2023/03/30 11:46:26;;;;;;;15.17;9.07;;;14.10;99.90;;;;;;4977343;28;20431;-72
2023/03/30 11:49:21;;;;;;;13.77;8.40;;;14.00;99.90;;;;;;4959996;28;21086;-78
2023/03/30 11:52:18;;;;;;;15.80;8.10;;;14.10;99.90;;;;;;4959610;28;20212;-71
2023/03/30 11:54:58;;;;;;;15.23;7.67;;;14.50;99.90;;;;;;4902014;29;20255;-74
2023/03/30 11:57:30;;;;;;;14.77;8.13;;;14.60;99.90;;;;;;4901213;29;20207;-73
2023/03/30 12:00:22;;;;;;;15.33;8.20;;;15.40;99.90;;;;;;4900618;29;20271;-72
2023/03/30 12:02:54;;;;;;;14.83;7.53;;;16.00;99.90;;;;;;4884859;29;20256;-73
2023/03/30 12:05:37;;;;;;;13.83;8.20;;;16.00;99.90;;;;;;4930668;29;20445;-73
2023/03/30 12:08:45;;;;;;;13.13;7.47;;;15.90;99.90;;;;;;4900439;29;20224;-76
2023/03/30 12:11:29;;;;;;;12.98;7.90;;;15.90;99.90;;;;;;4900415;29;20457;-78
2023/03/30 12:13:57;;;;;;;12.73;7.87;;;16.30;99.90;;;;;;4925811;29;20219;-73
2023/03/30 12:16:32;;;;;;;12.70;7.50;;;17.10;99.90;;;;;;4900288;29;20223;-78
2023/03/30 12:19:17;;;;;;;15.87;7.83;;;18.20;95.80;;;;;;4927976;29;20755;-78
2023/03/30 12:21:53;;;;;;;13.50;7.50;;;19.40;91.30;;;;;;4900009;29;20210;-75
2023/03/30 12:24:32;;;;;;;13.30;7.30;;;20.30;85.20;;;;;;4915754;29;20213;-73
2023/03/30 12:26:59;;;;;;;12.73;7.70;;;20.50;80.90;;;;;;4899663;29;20235;-74
2023/03/30 12:29:51;;;;;;;12.87;7.10;;;21.00;76.60;;;;;;4915484;29;20654;-80
2023/03/30 12:32:26;;;;;;;12.43;7.23;;;20.40;75.70;;;;;;4929884;29;20739;-73
2023/03/30 12:34:57;;;;;;;11.27;7.17;;;19.30;79.50;;;;;;4938226;29;20275;-78
2023/03/30 12:37:36;;;;;;;11.67;6.87;;;18.60;82.10;;;;;;4939167;29;20206;-77
2023/03/30 12:40:21;;;;;;;12.93;7.13;;;18.30;85.10;;;;;;4939165;29;20667;-72
2023/03/30 12:43:13;;;;;;;13.10;7.03;;;18.10;85.70;;;;;;4938333;29;20217;-76
2023/03/30 12:46:24;;;;;;;9.47;6.37;;;17.50;88.80;;;;;;4960203;29;20258;-81
2023/03/30 12:49:05;;;;;;;11.23;6.70;;;17.10;91.10;;;;;;4942096;29;20233;-84
2023/03/30 12:51:59;;;;;;;12.37;6.57;;;16.80;91.80;;;;;;4940047;29;20297;-81
2023/03/30 12:54:49;;;;;;;12.47;6.23;;;16.50;92.90;;;;;;4956284;29;20618;-75
2023/03/30 12:57:41;;;;;;;11.30;6.53;;;16.30;94.50;;;;;;4955178;29;20196;-75
2023/03/30 13:00:20;;;;;;;11.13;6.00;;;15.80;95.80;;;;;;4941639;28;20208;-73
2023/03/30 13:03:00;;;;;;;10.60;6.33;;;15.40;97.30;;;;;;4974711;28;20201;-74
2023/03/30 13:05:38;;;;;;;10.13;6.17;;;15.30;99.40;;;;;;4974993;28;20196;-76
2023/03/30 13:08:15;;;;;;;12.03;6.23;;;15.20;99.90;;;;;;4957700;28;20220;-79
2023/03/30 13:10:42;;;;;;;11.30;6.50;;;15.00;99.90;;;;;;4958922;28;20535;-78
2023/03/30 13:13:52;;;;;;;12.40;6.40;;;14.70;99.90;;;;;;4957599;28;20305;-76
2023/03/30 13:16:47;;;;;;;13.70;6.80;;;14.60;99.90;;;;;;4935612;28;20670;-76